Eglin Air Force Base, FL

1:14 PM CDT on July 06, 2015 (GMT -0500)
Eglin Air Force Base | | Change Station
CLOSE
Current Station
Airport
Location: Valparaiso,
Elevation: 85 ft
Nearby Weather Stations

Elev 85 ft 30.48 °N, 86.53 °W | Updated 19 minutes ago

Mostly Cloudy
Mostly Cloudy
88 °F
Feels Like 91 °F
N
5
Wind Variable Wind from North

Today
High -- | Low -- °F
--% Chance of Precip.
Yesterday
High -- | Low -- °F
Precip. -- in
5:49 AM 7:52 PM
Waning Gibbous, 73% visible
Pressure 30.19 in
Visibility 10.0 miles
Clouds Scattered Clouds 12000 ft
Mostly Cloudy 17000 ft
Mostly Cloudy 20000 ft
Heat Index 91 °F
Dew Point 67 °F
Humidity 49%
Rainfall 0.00 in
Snow Depth Not available.
UV 7 out of 12
Pollen 2.90 out of 12
Air Quality Not available.
Flu Activity Not available.
METAR KVPS 061755Z 36004KT 10SM SCT120 BKN170 BKN200 31/19 A3017 RMK AO2A SLP222 T03110192 10313 20236 58006 $

More Conditions Fewer Conditions

Pressure 30.19 in
Visibility 10.0 miles
Clouds Scattered Clouds 12000 ft
Mostly Cloudy 17000 ft
Mostly Cloudy 20000 ft
Heat Index 91 °F
Dew Point 67 °F
Humidity 49%
Rainfall 0.00 in
Snow Depth Not available.
UV 7 out of 12
Pollen 2.90 out of 12
Air Quality Not available.
Flu Activity Not available.
METAR KVPS 061755Z 36004KT 10SM SCT120 BKN170 BKN200 31/19 A3017 RMK AO2A SLP222 T03110192 10313 20236 58006 $

More Conditions Fewer Conditions

10-Day Weather Forecast

×

Almanac

Astronomy

Jul. 06, 2015 Rise Set
Actual Time
Civil Twilight
Nautical Twilight
Astronomical Twilight
Moon
Length of Visible Light
Length of Day
Tomorrow will be .
, % of the Moon is Illuminated

Today's Extremes

State Highs State Lows

Community

WunderPhotos

Upload Photos

1,835,610 photos uploaded!

WunderBlogs® & News

Nearby

Air Quality

  Air Quality AQ Index Pollutant
Not available.

Snow Depth

Station Depth Elevation

Earthquake Activity

City Distance Mag. Time & Date
Minimum magnitude displayed is 2.5.

Coastal Water Temperatures

Place Temperature

Stations

Nearby Weather Stations

Station Location Temp. Windchill Dew Point Humidity Wind Precip. Elev Updated Type